Wetterdaten: aktuell Mittwoch, 27.09.2023 18:00
Datum Zeit Temp. A. Feuchte A. Luftdruck Regen Wind Taupunkt Windchill Windben
27.09.2023 18:00 22,6 C 63 % 1018,8 hPa 0,0 l/m 2,2 km/h (1 Bft) 15,2 C 22,6 C 6,4 km/h (2 Bft)
27.09.2023 17:50 22,8 C 63 % 1018,8 hPa 0,0 l/m 2,5 km/h (1 Bft) 15,4 C 22,8 C 6,4 km/h (2 Bft)
27.09.2023 17:40 22,9 C 63 % 1018,9 hPa 0,0 l/m 0,0 km/h (0 Bft) 15,5 C 22,9 C 0,0 km/h (0 Bft)
27.09.2023 17:30 23,1 C 63 % 1018,9 hPa 0,0 l/m 0,2 km/h (0 Bft) 15,7 C 23,1 C 3,2 km/h (1 Bft)
27.09.2023 17:20 23,2 C 62 % 1018,9 hPa 0,0 l/m 1,5 km/h (1 Bft) 15,5 C 23,2 C 4,8 km/h (1 Bft)
27.09.2023 17:10 23,6 C 62 % 1019,0 hPa 0,0 l/m 2,8 km/h (1 Bft) 15,9 C 23,6 C 6,4 km/h (2 Bft)
27.09.2023 17:00 23,7 C 61 % 1018,9 hPa 0,0 l/m 1,7 km/h (1 Bft) 15,7 C 23,7 C 3,2 km/h (1 Bft)
27.09.2023 16:50 24,1 C 60 % 1019,0 hPa 0,0 l/m 0,9 km/h (0 Bft) 15,8 C 24,1 C 3,2 km/h (1 Bft)
27.09.2023 16:40 24,6 C 59 % 1019,1 hPa 0,0 l/m 2,1 km/h (1 Bft) 16,0 C 24,6 C 4,8 km/h (1 Bft)
27.09.2023 16:30 25,2 C 59 % 1019,1 hPa 0,0 l/m 3,2 km/h (1 Bft) 16,6 C 25,2 C 12,9 km/h (3 Bft)
27.09.2023 16:20 25,6 C 58 % 1019,2 hPa 0,0 l/m 3,7 km/h (1 Bft) 16,7 C 25,6 C 11,3 km/h (2 Bft)
27.09.2023 16:10 25,2 C 62 % 1019,3 hPa 0,0 l/m 3,4 km/h (1 Bft) 17,4 C 25,2 C 11,3 km/h (2 Bft)
27.09.2023 16:00 24,4 C 69 % 1019,4 hPa 0,0 l/m 1,4 km/h (1 Bft) 18,3 C 24,4 C 9,7 km/h (2 Bft)
27.09.2023 15:50 23,7 C 68 % 1019,6 hPa 0,0 l/m 3,2 km/h (1 Bft) 17,4 C 23,7 C 9,7 km/h (2 Bft)
27.09.2023 15:40 23,4 C 72 % 1019,6 hPa 0,0 l/m 2,1 km/h (1 Bft) 18,1 C 23,4 C 8,0 km/h (2 Bft)
27.09.2023 15:30 23,3 C 71 % 1019,8 hPa 0,0 l/m 2,3 km/h (1 Bft) 17,7 C 23,3 C 8,0 km/h (2 Bft)
27.09.2023 15:20 23,4 C 71 % 1019,9 hPa 0,0 l/m 1,6 km/h (1 Bft) 17,8 C 23,4 C 4,8 km/h (1 Bft)
27.09.2023 15:10 23,6 C 71 % 1020,0 hPa 0,0 l/m 3,2 km/h (1 Bft) 18,0 C 23,6 C 9,7 km/h (2 Bft)
27.09.2023 15:00 23,5 C 68 % 1020,0 hPa 0,0 l/m 4,1 km/h (1 Bft) 17,2 C 23,5 C 12,9 km/h (3 Bft)
27.09.2023 14:50 23,9 C 70 % 1020,1 hPa 0,0 l/m 4,7 km/h (1 Bft) 18,1 C 23,9 C 12,9 km/h (3 Bft)
27.09.2023 14:40 24,3 C 67 % 1020,3 hPa 0,0 l/m 5,0 km/h (1 Bft) 17,8 C 24,3 C 14,5 km/h (3 Bft)
_ Min-Zeit 04:20 16:20 17:50 - 00:00 03:50 03:50 00:00
Minimum _ 10,3 C 58 % 1018,8 hPa - 0,0 km/h (0 Bft) 9,5 C 10,4 C 0,0 km/h (0 Bft)
_ Max-Zeit 16:20 09:00 08:30 00:00 13:50 14:20 16:20 14:30
Maximum _ 25,6 C 96 % 1023,5 hPa 0,0 l/m 9,6 km/h
O (2 Bft)
18,4 C 25,6 C 19,3 km/h
O (3 Bft)
Durchschnitt _ 15,7 C 86 % 1021,8 hPa #0,0 l/m 1,7 km/h (1 Bft) 13,1 C 15,7 C 5,0 km/h (1 Bft)